sensor_id;sensor_type;location;lat;lon;timestamp;P1;durP1;ratioP1;P2;durP2;ratioP2
46288;SDS011;63105;46.158;14.604;2022-10-16T00:02:04;45.57;;;34.70;;
46288;SDS011;63105;46.158;14.604;2022-10-16T00:04:29;45.83;;;34.22;;
46288;SDS011;63105;46.158;14.604;2022-10-16T00:06:54;46.72;;;34.17;;
46288;SDS011;63105;46.158;14.604;2022-10-16T00:09:19;46.30;;;34.53;;
46288;SDS011;63105;46.158;14.604;2022-10-16T00:11:44;45.40;;;33.50;;
46288;SDS011;63105;46.158;14.604;2022-10-16T00:14:11;44.38;;;33.30;;
46288;SDS011;63105;46.158;14.604;2022-10-16T00:16:37;42.65;;;31.67;;
46288;SDS011;63105;46.158;14.604;2022-10-16T00:19:02;45.25;;;33.08;;
46288;SDS011;63105;46.158;14.604;2022-10-16T00:21:28;46.58;;;34.65;;
46288;SDS011;63105;46.158;14.604;2022-10-16T00:23:55;44.63;;;33.42;;
46288;SDS011;63105;46.158;14.604;2022-10-16T00:26:21;43.58;;;32.10;;
46288;SDS011;63105;46.158;14.604;2022-10-16T00:28:47;43.35;;;32.70;;
46288;SDS011;63105;46.158;14.604;2022-10-16T00:31:12;45.58;;;34.58;;
46288;SDS011;63105;46.158;14.604;2022-10-16T00:33:38;47.83;;;34.95;;
46288;SDS011;63105;46.158;14.604;2022-10-16T00:36:04;49.20;;;36.40;;
46288;SDS011;63105;46.158;14.604;2022-10-16T00:38:29;48.33;;;35.50;;
46288;SDS011;63105;46.158;14.604;2022-10-16T00:40:55;48.65;;;36.10;;
46288;SDS011;63105;46.158;14.604;2022-10-16T00:43:34;45.80;;;34.40;;
46288;SDS011;63105;46.158;14.604;2022-10-16T00:46:00;48.50;;;35.85;;
46288;SDS011;63105;46.158;14.604;2022-10-16T00:48:26;46.08;;;34.95;;
46288;SDS011;63105;46.158;14.604;2022-10-16T00:50:51;47.97;;;36.25;;
46288;SDS011;63105;46.158;14.604;2022-10-16T00:53:17;47.42;;;34.80;;
46288;SDS011;63105;46.158;14.604;2022-10-16T00:55:42;52.03;;;36.90;;
46288;SDS011;63105;46.158;14.604;2022-10-16T00:58:08;48.20;;;35.28;;
46288;SDS011;63105;46.158;14.604;2022-10-16T01:00:33;44.72;;;33.88;;
46288;SDS011;63105;46.158;14.604;2022-10-16T01:02:59;46.43;;;34.60;;
46288;SDS011;63105;46.158;14.604;2022-10-16T01:05:39;45.83;;;34.40;;
46288;SDS011;63105;46.158;14.604;2022-10-16T01:10:52;47.13;;;35.00;;
46288;SDS011;63105;46.158;14.604;2022-10-16T01:13:27;46.50;;;34.78;;
46288;SDS011;63105;46.158;14.604;2022-10-16T01:15:56;47.25;;;35.05;;
46288;SDS011;63105;46.158;14.604;2022-10-16T01:18:27;47.10;;;35.20;;
46288;SDS011;63105;46.158;14.604;2022-10-16T01:21:03;44.17;;;33.88;;
46288;SDS011;63105;46.158;14.604;2022-10-16T01:26:37;44.40;;;34.67;;
46288;SDS011;63105;46.158;14.604;2022-10-16T01:31:15;44.85;;;34.03;;
46288;SDS011;63105;46.158;14.604;2022-10-16T01:33:43;44.47;;;34.03;;
46288;SDS011;63105;46.158;14.604;2022-10-16T01:36:12;42.40;;;31.70;;
46288;SDS011;63105;46.158;14.604;2022-10-16T01:38:38;43.03;;;32.25;;
46288;SDS011;63105;46.158;14.604;2022-10-16T01:41:09;42.13;;;32.47;;
46288;SDS011;63105;46.158;14.604;2022-10-16T01:43:38;42.03;;;32.03;;
46288;SDS011;63105;46.158;14.604;2022-10-16T01:46:05;42.78;;;32.95;;
46288;SDS011;63105;46.158;14.604;2022-10-16T01:48:30;43.13;;;32.50;;
46288;SDS011;63105;46.158;14.604;2022-10-16T01:51:02;40.20;;;31.33;;
46288;SDS011;63105;46.158;14.604;2022-10-16T01:53:28;41.08;;;31.85;;
46288;SDS011;63105;46.158;14.604;2022-10-16T01:55:54;40.50;;;31.23;;
46288;SDS011;63105;46.158;14.604;2022-10-16T01:58:20;42.08;;;32.75;;
46288;SDS011;63105;46.158;14.604;2022-10-16T02:00:46;39.40;;;32.10;;
46288;SDS011;63105;46.158;14.604;2022-10-16T02:03:13;40.17;;;31.52;;
46288;SDS011;63105;46.158;14.604;2022-10-16T02:05:46;38.80;;;31.27;;
46288;SDS011;63105;46.158;14.604;2022-10-16T02:08:11;38.72;;;31.70;;
46288;SDS011;63105;46.158;14.604;2022-10-16T02:10:37;38.13;;;30.45;;
46288;SDS011;63105;46.158;14.604;2022-10-16T02:15:28;38.40;;;30.52;;
46288;SDS011;63105;46.158;14.604;2022-10-16T02:17:53;37.17;;;30.38;;
46288;SDS011;63105;46.158;14.604;2022-10-16T02:20:20;35.40;;;29.55;;
46288;SDS011;63105;46.158;14.604;2022-10-16T02:22:47;34.67;;;27.95;;
46288;SDS011;63105;46.158;14.604;2022-10-16T02:27:58;36.97;;;29.50;;
46288;SDS011;63105;46.158;14.604;2022-10-16T02:30:42;36.53;;;29.63;;
46288;SDS011;63105;46.158;14.604;2022-10-16T02:33:09;39.80;;;29.58;;
46288;SDS011;63105;46.158;14.604;2022-10-16T02:35:35;43.42;;;31.40;;
46288;SDS011;63105;46.158;14.604;2022-10-16T02:38:00;41.78;;;31.45;;
46288;SDS011;63105;46.158;14.604;2022-10-16T02:40:26;41.83;;;32.08;;
46288;SDS011;63105;46.158;14.604;2022-10-16T02:42:52;43.30;;;32.65;;
46288;SDS011;63105;46.158;14.604;2022-10-16T02:45:18;44.05;;;31.88;;
46288;SDS011;63105;46.158;14.604;2022-10-16T02:47:43;45.17;;;33.22;;
46288;SDS011;63105;46.158;14.604;2022-10-16T02:50:09;45.83;;;32.67;;
46288;SDS011;63105;46.158;14.604;2022-10-16T02:52:34;45.53;;;32.45;;
46288;SDS011;63105;46.158;14.604;2022-10-16T02:54:59;45.15;;;32.30;;
46288;SDS011;63105;46.158;14.604;2022-10-16T02:57:24;48.40;;;32.78;;
46288;SDS011;63105;46.158;14.604;2022-10-16T02:59:49;46.55;;;34.50;;
46288;SDS011;63105;46.158;14.604;2022-10-16T03:02:15;51.85;;;34.80;;
46288;SDS011;63105;46.158;14.604;2022-10-16T03:04:40;48.17;;;33.85;;
46288;SDS011;63105;46.158;14.604;2022-10-16T03:07:05;47.30;;;34.53;;
46288;SDS011;63105;46.158;14.604;2022-10-16T03:09:31;46.63;;;33.78;;
46288;SDS011;63105;46.158;14.604;2022-10-16T03:11:56;45.35;;;32.47;;
46288;SDS011;63105;46.158;14.604;2022-10-16T03:14:21;45.80;;;32.77;;
46288;SDS011;63105;46.158;14.604;2022-10-16T03:16:46;45.25;;;33.20;;
46288;SDS011;63105;46.158;14.604;2022-10-16T03:19:12;51.22;;;34.83;;
46288;SDS011;63105;46.158;14.604;2022-10-16T03:21:37;45.38;;;33.15;;
46288;SDS011;63105;46.158;14.604;2022-10-16T03:24:02;47.38;;;33.00;;
46288;SDS011;63105;46.158;14.604;2022-10-16T03:26:28;42.15;;;31.02;;
46288;SDS011;63105;46.158;14.604;2022-10-16T03:28:53;45.20;;;33.10;;
46288;SDS011;63105;46.158;14.604;2022-10-16T03:31:18;43.67;;;32.00;;
46288;SDS011;63105;46.158;14.604;2022-10-16T03:33:43;42.63;;;31.73;;
46288;SDS011;63105;46.158;14.604;2022-10-16T03:36:08;43.77;;;32.63;;
46288;SDS011;63105;46.158;14.604;2022-10-16T03:38:34;45.00;;;32.07;;
46288;SDS011;63105;46.158;14.604;2022-10-16T03:40:59;42.83;;;31.25;;
46288;SDS011;63105;46.158;14.604;2022-10-16T03:43:24;44.27;;;31.87;;
46288;SDS011;63105;46.158;14.604;2022-10-16T03:45:50;47.10;;;34.28;;
46288;SDS011;63105;46.158;14.604;2022-10-16T03:48:15;42.25;;;31.33;;
46288;SDS011;63105;46.158;14.604;2022-10-16T03:50:40;42.88;;;32.35;;
46288;SDS011;63105;46.158;14.604;2022-10-16T03:53:06;43.35;;;31.85;;
46288;SDS011;63105;46.158;14.604;2022-10-16T03:55:31;45.33;;;32.00;;
46288;SDS011;63105;46.158;14.604;2022-10-16T03:57:56;43.35;;;32.25;;
46288;SDS011;63105;46.158;14.604;2022-10-16T04:00:22;42.03;;;31.10;;
46288;SDS011;63105;46.158;14.604;2022-10-16T04:02:47;43.03;;;31.38;;
46288;SDS011;63105;46.158;14.604;2022-10-16T04:05:12;42.97;;;31.80;;
46288;SDS011;63105;46.158;14.604;2022-10-16T04:07:37;43.67;;;31.50;;
46288;SDS011;63105;46.158;14.604;2022-10-16T04:10:03;44.15;;;31.63;;
46288;SDS011;63105;46.158;14.604;2022-10-16T04:12:28;45.58;;;32.17;;
46288;SDS011;63105;46.158;14.604;2022-10-16T04:14:54;42.77;;;31.10;;
46288;SDS011;63105;46.158;14.604;2022-10-16T04:17:19;40.28;;;30.20;;
46288;SDS011;63105;46.158;14.604;2022-10-16T04:19:44;44.38;;;32.17;;
46288;SDS011;63105;46.158;14.604;2022-10-16T04:22:09;43.85;;;31.83;;
46288;SDS011;63105;46.158;14.604;2022-10-16T04:24:35;42.80;;;31.00;;
46288;SDS011;63105;46.158;14.604;2022-10-16T04:27:00;40.85;;;30.80;;
46288;SDS011;63105;46.158;14.604;2022-10-16T04:29:25;39.55;;;30.00;;
46288;SDS011;63105;46.158;14.604;2022-10-16T04:31:51;41.93;;;30.70;;
46288;SDS011;63105;46.158;14.604;2022-10-16T04:34:16;40.28;;;30.80;;
46288;SDS011;63105;46.158;14.604;2022-10-16T04:36:41;39.43;;;28.90;;
46288;SDS011;63105;46.158;14.604;2022-10-16T04:39:06;35.63;;;28.03;;
46288;SDS011;63105;46.158;14.604;2022-10-16T04:41:31;38.45;;;29.52;;
46288;SDS011;63105;46.158;14.604;2022-10-16T04:43:57;38.70;;;29.60;;
46288;SDS011;63105;46.158;14.604;2022-10-16T04:46:22;38.13;;;29.40;;
46288;SDS011;63105;46.158;14.604;2022-10-16T04:48:47;37.53;;;30.15;;
46288;SDS011;63105;46.158;14.604;2022-10-16T04:51:12;36.78;;;27.90;;
46288;SDS011;63105;46.158;14.604;2022-10-16T04:53:38;38.28;;;29.15;;
46288;SDS011;63105;46.158;14.604;2022-10-16T04:56:03;38.47;;;28.55;;
46288;SDS011;63105;46.158;14.604;2022-10-16T04:58:28;36.95;;;28.45;;
46288;SDS011;63105;46.158;14.604;2022-10-16T05:00:54;37.90;;;29.70;;
46288;SDS011;63105;46.158;14.604;2022-10-16T05:03:19;37.83;;;29.83;;
46288;SDS011;63105;46.158;14.604;2022-10-16T05:05:45;37.95;;;29.85;;
46288;SDS011;63105;46.158;14.604;2022-10-16T05:08:14;39.45;;;29.45;;
46288;SDS011;63105;46.158;14.604;2022-10-16T05:10:40;38.03;;;29.17;;
46288;SDS011;63105;46.158;14.604;2022-10-16T05:13:06;38.08;;;29.52;;
46288;SDS011;63105;46.158;14.604;2022-10-16T05:15:31;37.88;;;28.35;;
46288;SDS011;63105;46.158;14.604;2022-10-16T05:17:57;37.13;;;28.52;;
46288;SDS011;63105;46.158;14.604;2022-10-16T05:20:22;36.85;;;28.77;;
46288;SDS011;63105;46.158;14.604;2022-10-16T05:22:48;40.80;;;30.45;;
46288;SDS011;63105;46.158;14.604;2022-10-16T05:25:13;37.63;;;29.70;;
46288;SDS011;63105;46.158;14.604;2022-10-16T05:27:38;39.15;;;30.00;;
46288;SDS011;63105;46.158;14.604;2022-10-16T05:30:04;36.27;;;29.10;;
46288;SDS011;63105;46.158;14.604;2022-10-16T05:32:29;39.20;;;28.98;;
46288;SDS011;63105;46.158;14.604;2022-10-16T05:34:54;38.30;;;29.77;;
46288;SDS011;63105;46.158;14.604;2022-10-16T05:37:19;38.25;;;28.27;;
46288;SDS011;63105;46.158;14.604;2022-10-16T05:39:45;35.75;;;28.08;;
46288;SDS011;63105;46.158;14.604;2022-10-16T05:42:10;38.08;;;28.77;;
46288;SDS011;63105;46.158;14.604;2022-10-16T05:44:35;37.20;;;28.65;;
46288;SDS011;63105;46.158;14.604;2022-10-16T05:47:01;37.10;;;28.92;;
46288;SDS011;63105;46.158;14.604;2022-10-16T05:49:26;36.88;;;29.55;;
46288;SDS011;63105;46.158;14.604;2022-10-16T05:51:51;34.17;;;27.52;;
46288;SDS011;63105;46.158;14.604;2022-10-16T05:54:16;33.35;;;26.90;;
46288;SDS011;63105;46.158;14.604;2022-10-16T05:56:42;35.63;;;28.92;;
46288;SDS011;63105;46.158;14.604;2022-10-16T05:59:07;34.58;;;27.20;;
46288;SDS011;63105;46.158;14.604;2022-10-16T06:01:33;43.83;;;25.38;;
46288;SDS011;63105;46.158;14.604;2022-10-16T06:03:58;32.20;;;26.60;;
46288;SDS011;63105;46.158;14.604;2022-10-16T06:06:24;32.88;;;26.75;;
46288;SDS011;63105;46.158;14.604;2022-10-16T06:08:50;32.60;;;26.20;;
46288;SDS011;63105;46.158;14.604;2022-10-16T06:11:20;31.45;;;25.67;;
46288;SDS011;63105;46.158;14.604;2022-10-16T06:13:48;251.48;;;40.25;;
46288;SDS011;63105;46.158;14.604;2022-10-16T06:16:14;34.58;;;27.05;;
46288;SDS011;63105;46.158;14.604;2022-10-16T06:18:39;32.30;;;26.08;;
46288;SDS011;63105;46.158;14.604;2022-10-16T06:21:08;43.75;;;26.30;;
46288;SDS011;63105;46.158;14.604;2022-10-16T06:23:34;32.42;;;26.33;;
46288;SDS011;63105;46.158;14.604;2022-10-16T06:26:06;33.55;;;26.58;;
46288;SDS011;63105;46.158;14.604;2022-10-16T06:28:32;33.10;;;25.40;;
46288;SDS011;63105;46.158;14.604;2022-10-16T06:31:01;31.63;;;25.83;;
46288;SDS011;63105;46.158;14.604;2022-10-16T06:33:26;31.55;;;26.23;;
46288;SDS011;63105;46.158;14.604;2022-10-16T06:35:52;29.90;;;24.77;;
46288;SDS011;63105;46.158;14.604;2022-10-16T06:38:17;30.98;;;24.65;;
46288;SDS011;63105;46.158;14.604;2022-10-16T06:40:42;29.50;;;24.57;;
46288;SDS011;63105;46.158;14.604;2022-10-16T06:43:07;30.65;;;24.92;;
46288;SDS011;63105;46.158;14.604;2022-10-16T06:45:32;28.50;;;24.17;;
46288;SDS011;63105;46.158;14.604;2022-10-16T06:47:58;30.37;;;24.43;;
46288;SDS011;63105;46.158;14.604;2022-10-16T06:50:23;29.63;;;24.17;;
46288;SDS011;63105;46.158;14.604;2022-10-16T06:52:48;30.90;;;24.58;;
46288;SDS011;63105;46.158;14.604;2022-10-16T06:55:13;30.10;;;24.73;;
46288;SDS011;63105;46.158;14.604;2022-10-16T06:57:40;32.92;;;24.08;;
46288;SDS011;63105;46.158;14.604;2022-10-16T07:00:05;29.05;;;24.33;;
46288;SDS011;63105;46.158;14.604;2022-10-16T07:02:31;30.73;;;24.98;;
46288;SDS011;63105;46.158;14.604;2022-10-16T07:04:56;28.45;;;23.67;;
46288;SDS011;63105;46.158;14.604;2022-10-16T07:07:22;27.65;;;23.00;;
46288;SDS011;63105;46.158;14.604;2022-10-16T07:09:49;31.02;;;24.15;;
46288;SDS011;63105;46.158;14.604;2022-10-16T07:12:14;27.48;;;22.95;;
46288;SDS011;63105;46.158;14.604;2022-10-16T07:14:40;28.65;;;24.20;;
46288;SDS011;63105;46.158;14.604;2022-10-16T07:17:06;28.55;;;23.27;;
46288;SDS011;63105;46.158;14.604;2022-10-16T07:19:31;27.95;;;23.33;;
46288;SDS011;63105;46.158;14.604;2022-10-16T07:21:56;27.02;;;22.27;;
46288;SDS011;63105;46.158;14.604;2022-10-16T07:24:22;28.75;;;23.58;;
46288;SDS011;63105;46.158;14.604;2022-10-16T07:26:47;25.38;;;21.65;;
46288;SDS011;63105;46.158;14.604;2022-10-16T07:29:17;28.10;;;23.42;;
46288;SDS011;63105;46.158;14.604;2022-10-16T07:31:42;26.98;;;22.77;;
46288;SDS011;63105;46.158;14.604;2022-10-16T07:34:08;26.55;;;22.05;;
46288;SDS011;63105;46.158;14.604;2022-10-16T07:36:34;27.25;;;22.40;;
46288;SDS011;63105;46.158;14.604;2022-10-16T07:38:59;28.55;;;22.83;;
46288;SDS011;63105;46.158;14.604;2022-10-16T07:41:25;29.08;;;24.00;;
46288;SDS011;63105;46.158;14.604;2022-10-16T07:43:51;28.08;;;23.00;;
46288;SDS011;63105;46.158;14.604;2022-10-16T07:46:17;85.13;;;35.42;;
46288;SDS011;63105;46.158;14.604;2022-10-16T07:48:43;65.30;;;29.52;;
46288;SDS011;63105;46.158;14.604;2022-10-16T07:51:12;26.65;;;22.35;;
46288;SDS011;63105;46.158;14.604;2022-10-16T07:53:37;41.40;;;28.38;;
46288;SDS011;63105;46.158;14.604;2022-10-16T07:56:06;28.60;;;24.30;;
46288;SDS011;63105;46.158;14.604;2022-10-16T07:58:32;31.00;;;24.20;;
46288;SDS011;63105;46.158;14.604;2022-10-16T08:00:57;31.25;;;25.02;;
46288;SDS011;63105;46.158;14.604;2022-10-16T08:03:23;83.85;;;34.55;;
46288;SDS011;63105;46.158;14.604;2022-10-16T08:05:49;89.97;;;36.72;;
46288;SDS011;63105;46.158;14.604;2022-10-16T08:08:14;34.03;;;26.38;;
46288;SDS011;63105;46.158;14.604;2022-10-16T08:10:40;46.30;;;26.00;;
46288;SDS011;63105;46.158;14.604;2022-10-16T08:13:05;32.25;;;25.25;;
46288;SDS011;63105;46.158;14.604;2022-10-16T08:15:30;31.58;;;25.70;;
46288;SDS011;63105;46.158;14.604;2022-10-16T08:17:59;30.70;;;24.10;;
46288;SDS011;63105;46.158;14.604;2022-10-16T08:20:25;30.88;;;25.58;;
46288;SDS011;63105;46.158;14.604;2022-10-16T08:22:50;29.65;;;23.38;;
46288;SDS011;63105;46.158;14.604;2022-10-16T08:25:15;29.30;;;23.23;;
46288;SDS011;63105;46.158;14.604;2022-10-16T08:27:40;27.40;;;23.33;;
46288;SDS011;63105;46.158;14.604;2022-10-16T08:30:06;28.53;;;23.63;;
46288;SDS011;63105;46.158;14.604;2022-10-16T08:32:31;29.40;;;24.02;;
46288;SDS011;63105;46.158;14.604;2022-10-16T08:34:56;29.93;;;23.90;;
46288;SDS011;63105;46.158;14.604;2022-10-16T08:37:22;28.98;;;23.15;;
46288;SDS011;63105;46.158;14.604;2022-10-16T08:39:47;29.13;;;23.98;;
46288;SDS011;63105;46.158;14.604;2022-10-16T08:42:15;31.43;;;24.90;;
46288;SDS011;63105;46.158;14.604;2022-10-16T08:47:30;32.10;;;25.88;;
46288;SDS011;63105;46.158;14.604;2022-10-16T08:50:01;31.58;;;25.85;;
46288;SDS011;63105;46.158;14.604;2022-10-16T08:52:30;31.95;;;25.45;;
46288;SDS011;63105;46.158;14.604;2022-10-16T08:54:57;36.30;;;26.48;;
46288;SDS011;63105;46.158;14.604;2022-10-16T08:57:24;32.85;;;26.73;;
46288;SDS011;63105;46.158;14.604;2022-10-16T08:59:54;33.35;;;26.50;;
46288;SDS011;63105;46.158;14.604;2022-10-16T09:12:17;35.42;;;27.67;;
46288;SDS011;63105;46.158;14.604;2022-10-16T09:15:01;34.30;;;27.65;;
46288;SDS011;63105;46.158;14.604;2022-10-16T09:22:42;34.38;;;27.67;;
46288;SDS011;63105;46.158;14.604;2022-10-16T09:25:11;35.65;;;27.77;;
46288;SDS011;63105;46.158;14.604;2022-10-16T09:27:37;40.00;;;30.65;;
46288;SDS011;63105;46.158;14.604;2022-10-16T09:30:10;38.05;;;29.65;;
46288;SDS011;63105;46.158;14.604;2022-10-16T09:32:35;35.33;;;28.60;;
46288;SDS011;63105;46.158;14.604;2022-10-16T09:35:03;36.63;;;28.50;;
46288;SDS011;63105;46.158;14.604;2022-10-16T09:37:28;38.50;;;30.13;;
46288;SDS011;63105;46.158;14.604;2022-10-16T09:39:54;37.38;;;29.85;;
46288;SDS011;63105;46.158;14.604;2022-10-16T09:44:47;45.27;;;34.63;;
46288;SDS011;63105;46.158;14.604;2022-10-16T09:47:14;38.10;;;30.60;;
46288;SDS011;63105;46.158;14.604;2022-10-16T09:49:49;33.35;;;27.58;;
46288;SDS011;63105;46.158;14.604;2022-10-16T09:52:15;34.88;;;27.65;;
46288;SDS011;63105;46.158;14.604;2022-10-16T09:57:19;35.67;;;28.13;;
46288;SDS011;63105;46.158;14.604;2022-10-16T10:02:13;33.38;;;27.50;;
46288;SDS011;63105;46.158;14.604;2022-10-16T10:04:50;35.53;;;28.38;;
46288;SDS011;63105;46.158;14.604;2022-10-16T10:07:35;35.67;;;28.73;;
46288;SDS011;63105;46.158;14.604;2022-10-16T10:10:04;30.98;;;27.00;;
46288;SDS011;63105;46.158;14.604;2022-10-16T10:12:30;33.38;;;27.55;;
46288;SDS011;63105;46.158;14.604;2022-10-16T10:15:09;34.10;;;27.45;;
46288;SDS011;63105;46.158;14.604;2022-10-16T10:17:44;31.73;;;26.52;;
46288;SDS011;63105;46.158;14.604;2022-10-16T10:20:18;32.23;;;26.57;;
46288;SDS011;63105;46.158;14.604;2022-10-16T10:22:46;30.33;;;25.90;;
46288;SDS011;63105;46.158;14.604;2022-10-16T10:27:58;33.63;;;28.20;;
46288;SDS011;63105;46.158;14.604;2022-10-16T10:30:30;31.60;;;25.20;;
46288;SDS011;63105;46.158;14.604;2022-10-16T10:45:58;34.20;;;26.67;;
46288;SDS011;63105;46.158;14.604;2022-10-16T10:51:02;34.25;;;26.55;;
46288;SDS011;63105;46.158;14.604;2022-10-16T11:01:30;31.25;;;25.55;;
46288;SDS011;63105;46.158;14.604;2022-10-16T11:04:01;42.92;;;32.13;;
46288;SDS011;63105;46.158;14.604;2022-10-16T11:06:34;31.02;;;27.15;;
46288;SDS011;63105;46.158;14.604;2022-10-16T11:09:13;30.38;;;24.38;;
46288;SDS011;63105;46.158;14.604;2022-10-16T11:14:08;31.43;;;26.10;;
46288;SDS011;63105;46.158;14.604;2022-10-16T11:16:39;34.40;;;28.35;;
46288;SDS011;63105;46.158;14.604;2022-10-16T11:19:11;29.45;;;24.83;;
46288;SDS011;63105;46.158;14.604;2022-10-16T11:21:47;38.45;;;31.00;;
46288;SDS011;63105;46.158;14.604;2022-10-16T11:26:59;33.20;;;26.60;;
46288;SDS011;63105;46.158;14.604;2022-10-16T11:29:28;34.83;;;27.98;;
46288;SDS011;63105;46.158;14.604;2022-10-16T11:32:00;37.28;;;28.67;;
46288;SDS011;63105;46.158;14.604;2022-10-16T11:36:59;39.78;;;32.47;;
46288;SDS011;63105;46.158;14.604;2022-10-16T11:39:27;42.05;;;33.05;;
46288;SDS011;63105;46.158;14.604;2022-10-16T11:41:54;42.47;;;33.20;;
46288;SDS011;63105;46.158;14.604;2022-10-16T11:46:51;47.05;;;34.97;;
46288;SDS011;63105;46.158;14.604;2022-10-16T11:49:21;59.05;;;44.05;;
46288;SDS011;63105;46.158;14.604;2022-10-16T11:51:59;46.67;;;35.22;;
46288;SDS011;63105;46.158;14.604;2022-10-16T11:54:39;49.10;;;36.65;;
46288;SDS011;63105;46.158;14.604;2022-10-16T11:57:09;51.10;;;36.30;;
46288;SDS011;63105;46.158;14.604;2022-10-16T11:59:42;48.45;;;36.00;;
46288;SDS011;63105;46.158;14.604;2022-10-16T12:04:57;54.47;;;41.65;;
46288;SDS011;63105;46.158;14.604;2022-10-16T12:07:27;45.22;;;33.65;;
46288;SDS011;63105;46.158;14.604;2022-10-16T12:09:57;40.25;;;31.20;;
46288;SDS011;63105;46.158;14.604;2022-10-16T12:15:00;49.13;;;32.88;;
46288;SDS011;63105;46.158;14.604;2022-10-16T12:17:27;45.10;;;32.47;;
46288;SDS011;63105;46.158;14.604;2022-10-16T12:22:36;38.83;;;30.67;;
46288;SDS011;63105;46.158;14.604;2022-10-16T12:25:01;38.25;;;30.38;;
46288;SDS011;63105;46.158;14.604;2022-10-16T12:27:28;42.13;;;32.97;;
46288;SDS011;63105;46.158;14.604;2022-10-16T12:29:54;38.65;;;28.90;;
46288;SDS011;63105;46.158;14.604;2022-10-16T12:32:23;35.05;;;28.75;;
46288;SDS011;63105;46.158;14.604;2022-10-16T12:34:50;38.55;;;30.20;;
46288;SDS011;63105;46.158;14.604;2022-10-16T12:37:26;38.60;;;30.75;;
46288;SDS011;63105;46.158;14.604;2022-10-16T12:39:52;44.83;;;33.85;;
46288;SDS011;63105;46.158;14.604;2022-10-16T12:42:31;36.55;;;29.88;;
46288;SDS011;63105;46.158;14.604;2022-10-16T12:44:58;40.03;;;32.30;;
46288;SDS011;63105;46.158;14.604;2022-10-16T12:49:52;35.80;;;28.57;;
46288;SDS011;63105;46.158;14.604;2022-10-16T12:52:25;37.25;;;28.00;;
46288;SDS011;63105;46.158;14.604;2022-10-16T12:54:51;41.17;;;29.70;;
46288;SDS011;63105;46.158;14.604;2022-10-16T12:57:27;44.70;;;33.88;;
46288;SDS011;63105;46.158;14.604;2022-10-16T13:16:11;34.65;;;26.20;;
46288;SDS011;63105;46.158;14.604;2022-10-16T13:18:41;44.05;;;33.30;;
46288;SDS011;63105;46.158;14.604;2022-10-16T13:23:36;38.60;;;30.75;;
46288;SDS011;63105;46.158;14.604;2022-10-16T13:26:16;45.80;;;35.70;;
46288;SDS011;63105;46.158;14.604;2022-10-16T13:28:44;34.63;;;26.73;;
46288;SDS011;63105;46.158;14.604;2022-10-16T13:31:13;46.47;;;37.50;;
46288;SDS011;63105;46.158;14.604;2022-10-16T13:33:39;39.63;;;30.27;;
46288;SDS011;63105;46.158;14.604;2022-10-16T13:36:06;43.03;;;34.05;;
46288;SDS011;63105;46.158;14.604;2022-10-16T13:38:32;34.75;;;28.33;;
46288;SDS011;63105;46.158;14.604;2022-10-16T13:46:05;40.78;;;31.42;;
46288;SDS011;63105;46.158;14.604;2022-10-16T13:48:31;39.78;;;31.42;;
46288;SDS011;63105;46.158;14.604;2022-10-16T13:51:01;37.42;;;29.52;;
46288;SDS011;63105;46.158;14.604;2022-10-16T13:53:26;38.22;;;29.52;;
46288;SDS011;63105;46.158;14.604;2022-10-16T13:55:51;33.15;;;25.25;;
46288;SDS011;63105;46.158;14.604;2022-10-16T13:58:17;32.63;;;25.67;;
46288;SDS011;63105;46.158;14.604;2022-10-16T14:03:19;33.88;;;28.23;;
46288;SDS011;63105;46.158;14.604;2022-10-16T14:05:49;29.15;;;24.15;;
46288;SDS011;63105;46.158;14.604;2022-10-16T14:08:14;38.90;;;26.67;;
46288;SDS011;63105;46.158;14.604;2022-10-16T14:10:40;44.40;;;31.30;;
46288;SDS011;63105;46.158;14.604;2022-10-16T14:13:06;30.73;;;26.25;;
46288;SDS011;63105;46.158;14.604;2022-10-16T14:15:32;32.55;;;25.67;;
46288;SDS011;63105;46.158;14.604;2022-10-16T14:17:58;31.02;;;24.30;;
46288;SDS011;63105;46.158;14.604;2022-10-16T14:20:27;33.17;;;26.25;;
46288;SDS011;63105;46.158;14.604;2022-10-16T14:23:00;41.28;;;32.40;;
46288;SDS011;63105;46.158;14.604;2022-10-16T14:25:27;41.50;;;33.25;;
46288;SDS011;63105;46.158;14.604;2022-10-16T14:27:59;36.83;;;30.75;;
46288;SDS011;63105;46.158;14.604;2022-10-16T14:30:25;42.30;;;32.78;;
46288;SDS011;63105;46.158;14.604;2022-10-16T14:32:57;35.40;;;28.70;;
46288;SDS011;63105;46.158;14.604;2022-10-16T14:35:44;42.22;;;32.72;;
46288;SDS011;63105;46.158;14.604;2022-10-16T14:40:34;38.30;;;30.73;;
46288;SDS011;63105;46.158;14.604;2022-10-16T14:43:03;38.50;;;32.13;;
46288;SDS011;63105;46.158;14.604;2022-10-16T14:45:30;31.75;;;25.55;;
46288;SDS011;63105;46.158;14.604;2022-10-16T14:47:57;31.30;;;25.15;;
46288;SDS011;63105;46.158;14.604;2022-10-16T14:50:23;34.47;;;28.08;;
46288;SDS011;63105;46.158;14.604;2022-10-16T14:52:49;35.47;;;28.83;;
46288;SDS011;63105;46.158;14.604;2022-10-16T14:55:15;32.58;;;27.23;;
46288;SDS011;63105;46.158;14.604;2022-10-16T14:57:40;31.77;;;26.27;;
46288;SDS011;63105;46.158;14.604;2022-10-16T15:00:19;36.92;;;30.13;;
46288;SDS011;63105;46.158;14.604;2022-10-16T15:02:45;39.92;;;30.00;;
46288;SDS011;63105;46.158;14.604;2022-10-16T15:05:16;29.75;;;24.83;;
46288;SDS011;63105;46.158;14.604;2022-10-16T15:07:42;30.88;;;24.38;;
46288;SDS011;63105;46.158;14.604;2022-10-16T15:10:08;27.02;;;22.40;;
46288;SDS011;63105;46.158;14.604;2022-10-16T15:12:34;29.08;;;24.00;;
46288;SDS011;63105;46.158;14.604;2022-10-16T15:14:59;30.63;;;23.93;;
46288;SDS011;63105;46.158;14.604;2022-10-16T15:17:24;35.77;;;27.90;;
46288;SDS011;63105;46.158;14.604;2022-10-16T15:19:49;34.47;;;28.10;;
46288;SDS011;63105;46.158;14.604;2022-10-16T15:22:16;28.17;;;23.90;;
46288;SDS011;63105;46.158;14.604;2022-10-16T15:24:42;36.33;;;29.95;;
46288;SDS011;63105;46.158;14.604;2022-10-16T15:27:07;37.15;;;29.60;;
46288;SDS011;63105;46.158;14.604;2022-10-16T15:29:33;37.88;;;30.23;;
46288;SDS011;63105;46.158;14.604;2022-10-16T15:31:58;38.00;;;28.50;;
46288;SDS011;63105;46.158;14.604;2022-10-16T15:34:23;44.83;;;30.87;;
46288;SDS011;63105;46.158;14.604;2022-10-16T15:36:48;37.28;;;28.33;;
46288;SDS011;63105;46.158;14.604;2022-10-16T15:39:15;41.03;;;28.95;;
46288;SDS011;63105;46.158;14.604;2022-10-16T15:41:40;35.85;;;26.55;;
46288;SDS011;63105;46.158;14.604;2022-10-16T15:44:06;36.80;;;25.55;;
46288;SDS011;63105;46.158;14.604;2022-10-16T15:46:31;36.20;;;26.50;;
46288;SDS011;63105;46.158;14.604;2022-10-16T15:48:58;41.90;;;28.58;;
46288;SDS011;63105;46.158;14.604;2022-10-16T15:51:24;33.40;;;22.20;;
46288;SDS011;63105;46.158;14.604;2022-10-16T15:53:49;34.42;;;24.10;;
46288;SDS011;63105;46.158;14.604;2022-10-16T15:56:16;43.53;;;29.83;;
46288;SDS011;63105;46.158;14.604;2022-10-16T15:58:42;35.50;;;26.02;;
46288;SDS011;63105;46.158;14.604;2022-10-16T16:01:08;37.05;;;25.88;;
46288;SDS011;63105;46.158;14.604;2022-10-16T16:03:35;30.50;;;23.02;;